Chapman, Alabama
Current Conditions -  °F | °C
As of 11:56 PM on Wednesday 26 Nov 2014 (Local Time) from KPRN Reporting Station
Clear Clear  
Wind Chill: 44°   Ceiling: Unl
Heat Index: 47°   Visibility: 10mi
Dew Point: 37°   Wind: 7mph
Humidity: 68%   Direction: 280°W
Pressure: 30.18"   Gusts: NA
Location:  31.67°N, 86.71°W
Report Text: KPRN 270556Z AUTO 28006KT 10SM CLR 08/03 A3018 RMK AO2 SLP218 T00830028 10111 20083 401720033 53012
Loading
Personal Weather Stations






























Interactive Weather Map New forecast layout! Learn more

10-Day Weather Forecast

Advertisements
Track Severe Weather on mobile